createdAt,value
2023-06-04T00:02:22.891Z,100863.03
2023-06-04T00:04:49.803Z,100867.75
2023-06-04T00:07:16.730Z,100877.13
2023-06-04T00:09:45.234Z,100867.50
2023-06-04T00:12:12.306Z,100858.59
2023-06-04T00:14:39.656Z,100864.31
2023-06-04T00:17:07.155Z,100866.13
2023-06-04T00:19:35.189Z,100863.19
2023-06-04T00:22:02.159Z,100873.38
2023-06-04T00:24:28.947Z,100866.41
2023-06-04T00:26:55.748Z,100870.47
2023-06-04T00:29:22.518Z,100867.53
2023-06-04T00:31:50.114Z,100878.50
2023-06-04T00:34:19.516Z,100872.03
2023-06-04T00:36:46.434Z,100873.91
2023-06-04T00:39:13.359Z,100874.16
2023-06-04T00:41:40.433Z,100874.16
2023-06-04T00:44:07.816Z,100872.91
2023-06-04T00:46:39.363Z,100869.78
2023-06-04T00:49:07.328Z,100867.25
2023-06-04T00:51:34.415Z,100877.63
2023-06-04T00:54:10.371Z,100873.69
2023-06-04T00:56:38.491Z,100874.34
2023-06-04T00:59:09.922Z,100880.69
2023-06-04T01:01:41.917Z,100876.09
2023-06-04T01:04:30.509Z,100872.97
2023-06-04T01:06:59.924Z,100875.50
2023-06-04T01:09:28.977Z,100874.03
2023-06-04T01:11:59.390Z,100868.72
2023-06-04T01:14:27.216Z,100871.53
2023-06-04T01:17:04.544Z,100871.38
2023-06-04T01:19:43.174Z,100865.66
2023-06-04T01:22:26.071Z,100870.38
2023-06-04T01:24:57.447Z,100872.47
2023-06-04T01:27:24.853Z,100872.56
2023-06-04T01:29:52.600Z,100872.56
2023-06-04T01:32:19.791Z,100877.63
2023-06-04T01:34:47.946Z,100881.88
2023-06-04T01:37:14.846Z,100881.25
2023-06-04T01:39:42.620Z,100888.72
2023-06-04T01:42:10.038Z,100887.22
2023-06-04T01:44:38.546Z,100894.63
2023-06-04T01:47:05.522Z,100881.56
2023-06-04T01:49:32.283Z,100890.22
2023-06-04T01:51:59.039Z,100890.88
2023-06-04T01:54:26.519Z,100891.75
2023-06-04T01:56:53.596Z,100894.47
2023-06-04T01:59:21.478Z,100896.56
2023-06-04T02:01:48.304Z,100889.19
2023-06-04T02:04:15.161Z,100896.34
2023-06-04T02:06:41.958Z,100886.28
2023-06-04T02:09:09.538Z,100893.66
2023-06-04T02:11:36.422Z,100891.34
2023-06-04T02:14:03.381Z,100887.34
2023-06-04T02:16:30.223Z,100882.28
2023-06-04T02:18:57.007Z,100890.31
2023-06-04T02:21:24.357Z,100893.25
2023-06-04T02:23:51.277Z,100891.63
2023-06-04T02:26:18.584Z,100888.03
2023-06-04T02:28:45.550Z,100889.94
2023-06-04T02:31:12.319Z,100889.75
2023-06-04T02:33:39.258Z,100890.16
2023-06-04T02:36:06.707Z,100884.66
2023-06-04T02:38:34.671Z,100890.78
2023-06-04T02:41:01.565Z,100889.75
2023-06-04T02:43:28.345Z,100893.16
2023-06-04T02:45:55.142Z,100888.50
2023-06-04T02:48:22.483Z,100887.25
2023-06-04T02:50:49.294Z,100884.53
2023-06-04T02:53:16.085Z,100888.50
2023-06-04T02:55:42.985Z,100881.78
2023-06-04T02:58:09.994Z,100884.94
2023-06-04T03:00:36.814Z,100885.53
2023-06-04T03:03:04.188Z,100893.09
2023-06-04T03:05:33.224Z,100885.91
2023-06-04T03:08:03.882Z,100882.72
2023-06-04T03:10:32.369Z,100881.69
2023-06-04T03:12:59.511Z,100881.28
2023-06-04T03:15:26.378Z,100885.50
2023-06-04T03:17:53.919Z,100883.88
2023-06-04T03:20:20.733Z,100879.22
2023-06-04T03:22:47.551Z,100885.13
2023-06-04T03:25:14.989Z,100888.28
2023-06-04T03:27:41.838Z,100880.28
2023-06-04T03:30:09.372Z,100877.97
2023-06-04T03:32:36.709Z,100886.97
2023-06-04T03:35:04.498Z,100888.47
2023-06-04T03:37:31.502Z,100875.00
2023-06-04T03:39:58.262Z,100879.84
2023-06-04T03:42:25.050Z,100880.91
2023-06-04T03:44:52.390Z,100887.63
2023-06-04T03:47:19.429Z,100879.59
2023-06-04T03:49:46.300Z,100894.53
2023-06-04T03:52:13.277Z,100885.09
2023-06-04T03:54:40.643Z,100887.63
2023-06-04T03:57:07.487Z,100887.25
2023-06-04T03:59:34.368Z,100885.72
2023-06-04T04:02:01.434Z,100885.72
2023-06-04T04:04:28.414Z,100881.09
2023-06-04T04:06:55.250Z,100880.44
2023-06-04T04:09:22.016Z,100887.88
2023-06-04T04:11:48.786Z,100883.84
2023-06-04T04:14:15.889Z,100888.88
2023-06-04T04:16:42.985Z,100885.13
2023-06-04T04:19:10.007Z,100884.28
2023-06-04T04:21:37.776Z,100884.72
2023-06-04T04:24:05.566Z,100889.34
2023-06-04T04:26:33.378Z,100889.31
2023-06-04T04:29:01.151Z,100887.63
2023-06-04T04:31:29.019Z,100892.69
2023-06-04T04:33:59.205Z,100885.53
2023-06-04T04:36:26.336Z,100882.56
2023-06-04T04:38:55.987Z,100883.00
2023-06-04T04:41:24.300Z,100888.03
2023-06-04T04:43:53.891Z,100888.50
2023-06-04T04:46:20.766Z,100887.44
2023-06-04T04:48:48.030Z,100895.44
2023-06-04T04:51:15.259Z,100888.47
2023-06-04T04:53:42.699Z,100884.47
2023-06-04T04:56:09.654Z,100885.72
2023-06-04T04:58:36.440Z,100888.22
2023-06-04T05:01:03.239Z,100885.09
2023-06-04T05:03:30.060Z,100889.47
2023-06-04T05:05:57.492Z,100893.25
2023-06-04T05:08:24.553Z,100898.59
2023-06-04T05:10:54.085Z,100888.88
2023-06-04T05:13:21.640Z,100898.38
2023-06-04T05:15:49.010Z,100902.34
2023-06-04T05:18:17.632Z,100897.00
2023-06-04T05:20:44.521Z,100887.09
2023-06-04T05:23:13.595Z,100889.97
2023-06-04T05:25:41.979Z,100897.22
2023-06-04T05:28:08.807Z,100894.84
2023-06-04T05:30:35.957Z,100892.13
2023-06-04T05:33:02.803Z,100899.97
2023-06-04T05:35:29.622Z,100902.03
2023-06-04T05:37:56.444Z,100898.66
2023-06-04T05:40:23.346Z,100904.50
2023-06-04T05:42:50.554Z,100907.66
2023-06-04T05:45:17.727Z,100913.56
2023-06-04T05:47:44.724Z,100910.63
2023-06-04T05:50:11.699Z,100905.94
2023-06-04T05:52:38.947Z,100907.63
2023-06-04T05:55:08.925Z,100908.56
2023-06-04T05:57:36.258Z,100921.63
2023-06-04T06:00:07.393Z,100918.72
2023-06-04T06:02:35.948Z,100911.53
2023-06-04T06:05:02.916Z,100919.09
2023-06-04T06:07:29.842Z,100915.88
2023-06-04T06:09:56.699Z,100922.38
2023-06-04T06:12:23.673Z,100918.13
2023-06-04T06:14:50.561Z,100918.59
2023-06-04T06:17:17.820Z,100929.63
2023-06-04T06:19:44.664Z,100914.63
2023-06-04T06:22:11.531Z,100924.06
2023-06-04T06:24:38.511Z,100918.38
2023-06-04T06:27:06.183Z,100924.06
2023-06-04T06:29:33.125Z,100930.09
2023-06-04T06:32:00.498Z,100922.03
2023-06-04T06:34:27.918Z,100925.84
2023-06-04T06:36:54.779Z,100926.09
2023-06-04T06:39:21.646Z,100921.50
2023-06-04T06:41:48.771Z,100928.13
2023-06-04T06:44:15.625Z,100915.22
2023-06-04T06:46:42.457Z,100922.88
2023-06-04T06:49:09.609Z,100914.19
2023-06-04T06:51:36.613Z,100924.78
2023-06-04T06:54:03.458Z,100921.13
2023-06-04T06:56:31.769Z,100918.78
2023-06-04T06:58:58.533Z,100917.47
2023-06-04T07:01:25.371Z,100917.38
2023-06-04T07:03:52.290Z,100918.72
2023-06-04T07:06:19.271Z,100929.19
2023-06-04T07:08:46.105Z,100928.03
2023-06-04T07:11:13.446Z,100921.53
2023-06-04T07:13:40.587Z,100920.28
2023-06-04T07:16:07.614Z,100908.69
2023-06-04T07:18:34.588Z,100919.94
2023-06-04T07:21:01.423Z,100912.19
2023-06-04T07:23:28.727Z,100919.50
2023-06-04T07:25:55.727Z,100916.91
2023-06-04T07:28:22.552Z,100913.88
2023-06-04T07:30:49.376Z,100929.78
2023-06-04T07:33:16.346Z,100920.47
2023-06-04T07:35:44.441Z,100917.47
2023-06-04T07:38:11.279Z,100921.75
2023-06-04T07:40:38.168Z,100917.63
2023-06-04T07:43:04.958Z,100934.34
2023-06-04T07:45:34.871Z,100919.94
2023-06-04T07:48:02.762Z,100919.25
2023-06-04T07:50:29.640Z,100916.63
2023-06-04T07:52:56.440Z,100922.75
2023-06-04T07:55:23.726Z,100920.63
2023-06-04T07:57:50.662Z,100921.59
2023-06-04T08:00:19.100Z,100919.47
2023-06-04T08:02:46.138Z,100924.44
2023-06-04T08:05:15.007Z,100924.03
2023-06-04T08:07:42.780Z,100918.00
2023-06-04T08:10:10.322Z,100916.22
2023-06-04T08:12:37.278Z,100912.13
2023-06-04T08:15:04.667Z,100918.25
2023-06-04T08:17:31.458Z,100925.53
2023-06-04T08:19:58.512Z,100924.09
2023-06-04T08:22:25.688Z,100924.72
2023-06-04T08:24:52.479Z,100915.84
2023-06-04T08:27:19.229Z,100916.56
2023-06-04T08:29:45.997Z,100917.28
2023-06-04T08:32:12.821Z,100920.63
2023-06-04T08:34:39.572Z,100917.03
2023-06-04T08:37:07.291Z,100920.66
2023-06-04T08:39:34.682Z,100915.00
2023-06-04T08:42:05.053Z,100916.63
2023-06-04T08:44:31.940Z,100919.44
2023-06-04T08:47:09.850Z,100915.19
2023-06-04T08:49:37.865Z,100910.38
2023-06-04T08:52:05.323Z,100922.00
2023-06-04T08:54:33.468Z,100928.34
2023-06-04T08:57:01.838Z,100914.94
2023-06-04T08:59:29.449Z,100928.84
2023-06-04T09:01:56.939Z,100918.06
2023-06-04T09:04:24.305Z,100917.72
2023-06-04T09:06:51.503Z,100912.47
2023-06-04T09:09:20.079Z,100914.34
2023-06-04T09:11:49.765Z,100922.47
2023-06-04T09:14:19.995Z,100927.66
2023-06-04T09:16:54.675Z,100916.88
2023-06-04T09:19:22.554Z,100921.25
2023-06-04T09:21:54.500Z,100922.97
2023-06-04T09:24:26.932Z,100913.91
2023-06-04T09:27:49.593Z,100911.59
2023-06-04T09:30:16.636Z,100921.19
2023-06-04T09:32:43.556Z,100912.22
2023-06-04T09:35:15.713Z,100916.94
2023-06-04T09:37:44.134Z,100914.75
2023-06-04T09:40:11.644Z,100916.19
2023-06-04T09:42:50.726Z,100917.38
2023-06-04T09:45:29.934Z,100915.84
2023-06-04T09:47:57.006Z,100912.13
2023-06-04T09:50:28.900Z,100924.94
2023-06-04T09:52:55.930Z,100921.09
2023-06-04T09:55:23.842Z,100922.78
2023-06-04T09:57:52.503Z,100925.41
2023-06-04T10:00:22.152Z,100927.47
2023-06-04T10:02:50.086Z,100937.59
2023-06-04T10:05:17.625Z,100931.63
2023-06-04T10:07:47.829Z,100930.69
2023-06-04T10:10:21.423Z,100927.81
2023-06-04T10:12:55.957Z,100923.41
2023-06-04T10:15:22.803Z,100931.06
2023-06-04T10:17:51.090Z,100935.00
2023-06-04T10:20:19.376Z,100933.22
2023-06-04T10:22:46.389Z,100933.44
2023-06-04T10:25:13.920Z,100931.19
2023-06-04T10:27:41.586Z,100934.28
2023-06-04T10:30:09.566Z,100936.56
2023-06-04T10:32:36.632Z,100936.66
2023-06-04T10:35:09.376Z,100929.91
2023-06-04T10:37:36.786Z,100939.25
2023-06-04T10:40:06.645Z,100939.00
2023-06-04T10:42:41.962Z,100923.00
2023-06-04T10:45:11.215Z,100929.69
2023-06-04T10:47:41.987Z,100938.38
2023-06-04T10:50:14.236Z,100933.25
2023-06-04T10:52:58.703Z,100933.13
2023-06-04T10:55:26.946Z,100927.00
2023-06-04T10:57:55.046Z,100936.28
2023-06-04T11:00:22.556Z,100933.16
2023-06-04T11:02:58.640Z,100935.28
2023-06-04T11:05:44.060Z,100936.91
2023-06-04T11:08:12.697Z,100932.75
2023-06-04T11:10:44.784Z,100938.66
2023-06-04T11:13:11.747Z,100938.47
2023-06-04T11:15:50.093Z,100937.28
2023-06-04T11:18:21.687Z,100938.22
2023-06-04T11:20:51.167Z,100941.66
2023-06-04T11:23:18.928Z,100948.44
2023-06-04T11:25:47.003Z,100943.44
2023-06-04T11:28:19.374Z,100937.84
2023-06-04T11:31:04.611Z,100947.44
2023-06-04T11:33:31.981Z,100935.56
2023-06-04T11:35:58.831Z,100938.41
2023-06-04T11:38:25.656Z,100935.16
2023-06-04T11:41:02.973Z,100938.56
2023-06-04T11:43:30.955Z,100926.63
2023-06-04T11:45:59.729Z,100932.22
2023-06-04T11:48:27.037Z,100924.59
2023-06-04T11:50:54.824Z,100923.53
2023-06-04T11:53:22.061Z,100921.25
2023-06-04T11:55:49.049Z,100925.75
2023-06-04T11:58:16.840Z,100917.34
2023-06-04T12:00:43.799Z,100916.41
2023-06-04T12:03:10.820Z,100922.44
2023-06-04T12:05:37.842Z,100919.59
2023-06-04T12:08:10.633Z,100918.34
2023-06-04T12:10:41.788Z,100912.66
2023-06-04T12:13:09.432Z,100922.00
2023-06-04T12:15:36.482Z,100907.94
2023-06-04T12:18:05.647Z,100909.06
2023-06-04T12:20:40.612Z,100916.97
2023-06-04T12:23:08.478Z,100910.28
2023-06-04T12:25:38.759Z,100914.03
2023-06-04T12:28:06.727Z,100898.59
2023-06-04T12:30:41.202Z,100901.66
2023-06-04T12:33:08.619Z,100900.31
2023-06-04T12:35:36.198Z,100899.63
2023-06-04T12:38:06.715Z,100899.16
2023-06-04T12:40:33.829Z,100894.69
2023-06-04T12:43:01.091Z,100889.03
2023-06-04T12:45:29.959Z,100901.19
2023-06-04T12:47:56.814Z,100881.66
2023-06-04T12:50:23.628Z,100880.91
2023-06-04T12:52:50.990Z,100886.00
2023-06-04T12:55:17.768Z,100888.09
2023-06-04T12:57:45.954Z,100885.84
2023-06-04T13:00:13.878Z,100880.53
2023-06-04T13:02:40.808Z,100877.88
2023-06-04T13:05:08.733Z,100879.16
2023-06-04T13:07:35.710Z,100879.88
2023-06-04T13:10:02.623Z,100882.47
2023-06-04T13:12:29.363Z,100885.16
2023-06-04T13:14:57.194Z,100876.38
2023-06-04T13:17:24.178Z,100863.94
2023-06-04T13:19:51.394Z,100870.47
2023-06-04T13:22:18.305Z,100867.59
2023-06-04T13:24:45.205Z,100869.03
2023-06-04T13:27:12.009Z,100861.28
2023-06-04T13:29:38.906Z,100856.16
2023-06-04T13:32:06.139Z,100862.38
2023-06-04T13:34:33.421Z,100863.94
2023-06-04T13:37:00.522Z,100853.31
2023-06-04T13:39:27.629Z,100847.06
2023-06-04T13:41:55.448Z,100841.81
2023-06-04T13:44:27.442Z,100849.94
2023-06-04T13:46:54.962Z,100842.19
2023-06-04T13:49:22.462Z,100847.38
2023-06-04T13:51:49.332Z,100847.38
2023-06-04T13:54:16.151Z,100839.69
2023-06-04T13:56:42.974Z,100844.72
2023-06-04T13:59:09.759Z,100849.13
2023-06-04T14:01:36.585Z,100854.00
2023-06-04T14:04:07.607Z,100844.13
2023-06-04T14:06:37.285Z,100843.66
2023-06-04T14:09:05.150Z,100837.53
2023-06-04T14:11:33.779Z,100832.28
2023-06-04T14:14:00.768Z,100838.44
2023-06-04T14:16:27.738Z,100831.53
2023-06-04T14:18:54.859Z,100833.81
2023-06-04T14:21:22.982Z,100828.78
2023-06-04T14:23:51.499Z,100827.13
2023-06-04T14:26:19.034Z,100832.41
2023-06-04T14:28:46.063Z,100826.59
2023-06-04T14:31:13.034Z,100825.78
2023-06-04T14:33:39.971Z,100832.69
2023-06-04T14:36:06.724Z,100829.66
2023-06-04T14:38:33.588Z,100827.16
2023-06-04T14:41:01.010Z,100822.19
2023-06-04T14:43:27.817Z,100830.22
2023-06-04T14:45:54.559Z,100830.50
2023-06-04T14:48:21.435Z,100829.69
2023-06-04T14:50:48.282Z,100818.59
2023-06-04T14:53:15.094Z,100821.94
2023-06-04T14:55:41.987Z,100817.50
2023-06-04T14:58:09.398Z,100828.31
2023-06-04T15:00:36.816Z,100817.22
2023-06-04T15:03:04.353Z,100823.34
2023-06-04T15:05:34.970Z,100825.56
2023-06-04T15:08:03.101Z,100827.19
2023-06-04T15:10:30.145Z,100818.59
2023-06-04T15:12:57.855Z,100827.19
2023-06-04T15:15:24.792Z,100824.44
2023-06-04T15:17:51.996Z,100814.97
2023-06-04T15:20:19.237Z,100824.44
2023-06-04T15:22:46.662Z,100822.19
2023-06-04T15:25:13.821Z,100814.72
2023-06-04T15:27:42.113Z,100816.09
2023-06-04T15:30:09.403Z,100811.09
2023-06-04T15:32:36.623Z,100810.53
2023-06-04T15:35:05.141Z,100813.31
2023-06-04T15:37:32.161Z,100815.28
2023-06-04T15:40:01.030Z,100816.41
2023-06-04T15:42:28.263Z,100808.34
2023-06-04T15:44:56.621Z,100805.56
2023-06-04T15:47:23.633Z,100805.03
2023-06-04T15:49:50.740Z,100803.34
2023-06-04T15:52:17.867Z,100802.25
2023-06-04T15:54:47.019Z,100791.72
2023-06-04T15:57:14.653Z,100788.63
2023-06-04T15:59:42.376Z,100790.03
2023-06-04T16:02:09.340Z,100795.28
2023-06-04T16:04:36.341Z,100787.53
2023-06-04T16:07:03.877Z,100783.34
2023-06-04T16:09:30.762Z,100787.28
2023-06-04T16:11:58.132Z,100780.03
2023-06-04T16:14:24.902Z,100785.03
2023-06-04T16:16:51.873Z,100786.13
2023-06-04T16:19:18.774Z,100792.53
2023-06-04T16:21:45.845Z,100780.06
2023-06-04T16:24:12.906Z,100777.25
2023-06-04T16:26:39.880Z,100770.59
2023-06-04T16:29:07.032Z,100781.41
2023-06-04T16:31:34.267Z,100780.56
2023-06-04T16:34:01.297Z,100768.38
2023-06-04T16:36:28.167Z,100773.09
2023-06-04T16:38:56.627Z,100775.59
2023-06-04T16:41:23.760Z,100776.69
2023-06-04T16:43:50.734Z,100764.19
2023-06-04T16:46:17.617Z,100765.06
2023-06-04T16:48:44.856Z,100767.81
2023-06-04T16:51:12.690Z,100759.75
2023-06-04T16:53:40.358Z,100765.31
2023-06-04T16:56:07.476Z,100758.91
2023-06-04T16:58:39.488Z,100755.56
2023-06-04T17:01:09.689Z,100761.72
2023-06-04T17:03:37.515Z,100760.06
2023-06-04T17:06:08.072Z,100760.06
2023-06-04T17:08:35.349Z,100760.03
2023-06-04T17:11:02.242Z,100758.09
2023-06-04T17:13:29.732Z,100754.22
2023-06-04T17:15:56.612Z,100755.91
2023-06-04T17:18:23.858Z,100758.94
2023-06-04T17:20:50.757Z,100753.38
2023-06-04T17:23:25.538Z,100755.31
2023-06-04T17:25:53.488Z,100762.78
2023-06-04T17:28:20.711Z,100758.94
2023-06-04T17:30:47.800Z,100763.38
2023-06-04T17:33:14.817Z,100757.25
2023-06-04T17:35:41.871Z,100757.22
2023-06-04T17:38:08.729Z,100766.66
2023-06-04T17:40:35.583Z,100750.84
2023-06-04T17:43:02.361Z,100757.22
2023-06-04T17:45:31.590Z,100756.09
2023-06-04T17:47:58.715Z,100759.91
2023-06-04T17:50:26.076Z,100746.25
2023-06-04T17:52:52.831Z,100748.88
2023-06-04T17:55:20.178Z,100760.00
2023-06-04T17:57:47.048Z,100759.41
2023-06-04T18:00:15.007Z,100758.47
2023-06-04T18:02:42.315Z,100763.75
2023-06-04T18:05:10.321Z,100755.63
2023-06-04T18:07:37.374Z,100755.38
2023-06-04T18:10:04.677Z,100759.31
2023-06-04T18:12:32.811Z,100755.50
2023-06-04T18:15:01.317Z,100753.56
2023-06-04T18:17:28.164Z,100764.28
2023-06-04T18:19:55.015Z,100760.66
2023-06-04T18:22:21.920Z,100764.13
2023-06-04T18:24:48.742Z,100758.25
2023-06-04T18:27:15.625Z,100763.16
2023-06-04T18:29:47.141Z,100768.56
2023-06-04T18:32:14.375Z,100767.44
2023-06-04T18:34:41.179Z,100760.63
2023-06-04T18:37:07.964Z,100749.19
2023-06-04T18:39:34.883Z,100761.25
2023-06-04T18:42:09.271Z,100760.50
2023-06-04T18:44:45.382Z,100763.50
2023-06-04T18:47:12.201Z,100767.44
2023-06-04T18:49:38.986Z,100760.59
2023-06-04T18:52:05.867Z,100757.50
2023-06-04T18:54:32.823Z,100762.00
2023-06-04T18:56:59.868Z,100759.22
2023-06-04T18:59:27.028Z,100756.16
2023-06-04T19:01:55.928Z,100765.84
2023-06-04T19:04:22.889Z,100773.28
2023-06-04T19:06:49.747Z,100767.69
2023-06-04T19:09:16.864Z,100780.16
2023-06-04T19:11:43.877Z,100775.47
2023-06-04T19:14:10.709Z,100776.00
2023-06-04T19:16:37.504Z,100776.56
2023-06-04T19:19:08.729Z,100778.38
2023-06-04T19:21:37.624Z,100776.91
2023-06-04T19:24:05.308Z,100774.97
2023-06-04T19:26:32.191Z,100777.34
2023-06-04T19:28:58.963Z,100783.72
2023-06-04T19:31:28.799Z,100778.22
2023-06-04T19:33:56.576Z,100784.53
2023-06-04T19:36:23.345Z,100782.22
2023-06-04T19:38:50.190Z,100780.53
2023-06-04T19:41:17.776Z,100786.56
2023-06-04T19:43:44.740Z,100785.34
2023-06-04T19:46:11.548Z,100790.19
2023-06-04T19:48:39.525Z,100778.50
2023-06-04T19:51:06.363Z,100788.47
2023-06-04T19:53:33.228Z,100786.16
2023-06-04T19:56:00.310Z,100792.81
2023-06-04T19:58:28.009Z,100804.81
2023-06-04T20:00:56.099Z,100805.84
2023-06-04T20:03:24.275Z,100809.09
2023-06-04T20:05:51.247Z,100806.28
2023-06-04T20:08:18.243Z,100814.25
2023-06-04T20:10:46.502Z,100821.78
2023-06-04T20:13:13.318Z,100817.50
2023-06-04T20:15:40.145Z,100822.59
2023-06-04T20:18:07.506Z,100828.28
2023-06-04T20:20:34.451Z,100831.44
2023-06-04T20:23:01.234Z,100846.19
2023-06-04T20:25:27.984Z,100847.53
2023-06-04T20:27:54.768Z,100849.63
2023-06-04T20:30:21.553Z,100860.59
2023-06-04T20:32:49.784Z,100864.78
2023-06-04T20:35:16.772Z,100857.75
2023-06-04T20:37:43.628Z,100870.72
2023-06-04T20:40:10.696Z,100880.53
2023-06-04T20:42:37.498Z,100881.47
2023-06-04T20:45:05.238Z,100877.53
2023-06-04T20:47:32.085Z,100891.97
2023-06-04T20:49:58.896Z,100890.84
2023-06-04T20:52:25.744Z,100900.03
2023-06-04T20:54:53.624Z,100903.03
2023-06-04T20:57:20.384Z,100904.38
2023-06-04T20:59:47.208Z,100899.50
2023-06-04T21:02:14.103Z,100905.41
2023-06-04T21:04:41.137Z,100915.16
2023-06-04T21:07:08.012Z,100903.06
2023-06-04T21:09:35.006Z,100908.44
2023-06-04T21:12:01.769Z,100900.06
2023-06-04T21:14:28.615Z,100907.16
2023-06-04T21:16:55.525Z,100903.66
2023-06-04T21:19:22.290Z,100903.34
2023-06-04T21:21:49.099Z,100899.91
2023-06-04T21:24:15.896Z,100898.56
2023-06-04T21:26:42.671Z,100901.47
2023-06-04T21:29:09.480Z,100910.69
2023-06-04T21:31:36.400Z,100901.84
2023-06-04T21:34:03.395Z,100898.38
2023-06-04T21:36:30.612Z,100899.31
2023-06-04T21:38:57.593Z,100906.16
2023-06-04T21:41:24.531Z,100913.09
2023-06-04T21:43:51.420Z,100919.56
2023-06-04T21:46:19.069Z,100918.25
2023-06-04T21:48:45.854Z,100930.91
2023-06-04T21:51:13.428Z,100919.56
2023-06-04T21:53:41.072Z,100924.81
2023-06-04T21:56:08.030Z,100924.94
2023-06-04T21:58:35.292Z,100927.69
2023-06-04T22:01:02.189Z,100924.44
2023-06-04T22:03:29.642Z,100931.09
2023-06-04T22:05:56.560Z,100929.91
2023-06-04T22:08:23.357Z,100930.84
2023-06-04T22:10:50.194Z,100935.13
2023-06-04T22:13:17.127Z,100936.19
2023-06-04T22:15:44.222Z,100938.75
2023-06-04T22:18:11.355Z,100935.16
2023-06-04T22:20:38.235Z,100942.19
2023-06-04T22:23:05.069Z,100934.78
2023-06-04T22:25:31.861Z,100933.81
2023-06-04T22:27:58.660Z,100938.09
2023-06-04T22:30:25.630Z,100945.13
2023-06-04T22:32:52.651Z,100946.06
2023-06-04T22:35:19.717Z,100949.56
2023-06-04T22:37:46.551Z,100949.00
2023-06-04T22:40:14.400Z,100959.97
2023-06-04T22:42:41.700Z,100956.59
2023-06-04T22:45:09.338Z,100957.09
2023-06-04T22:47:36.739Z,100954.19
2023-06-04T22:50:03.939Z,100967.53
2023-06-04T22:52:31.862Z,100962.59
2023-06-04T22:54:58.754Z,100961.22
2023-06-04T22:57:25.835Z,100965.00
2023-06-04T22:59:53.323Z,100965.25
2023-06-04T23:02:20.129Z,100968.22
2023-06-04T23:04:47.020Z,100961.72
2023-06-04T23:07:13.779Z,100965.53
2023-06-04T23:09:40.808Z,100967.72
2023-06-04T23:12:07.789Z,100971.41
2023-06-04T23:14:34.552Z,100970.78
2023-06-04T23:17:01.559Z,100979.06
2023-06-04T23:19:28.637Z,100975.50
2023-06-04T23:21:55.640Z,100973.44
2023-06-04T23:24:22.437Z,100976.59
2023-06-04T23:26:49.667Z,100987.81
2023-06-04T23:29:16.490Z,100986.44
2023-06-04T23:31:43.422Z,100978.03
2023-06-04T23:34:10.288Z,100984.38
2023-06-04T23:36:37.216Z,100988.03
2023-06-04T23:39:05.222Z,100991.47
2023-06-04T23:41:32.571Z,100991.47
2023-06-04T23:43:59.372Z,100996.34
2023-06-04T23:46:26.360Z,100991.25
2023-06-04T23:48:53.203Z,100991.00
2023-06-04T23:51:20.181Z,100984.53
2023-06-04T23:53:47.534Z,100989.41
2023-06-04T23:56:14.590Z,100984.34
2023-06-04T23:58:41.777Z,100987.34
